• Join FlightAware (Why Join?)
  • Login
  • US Flag 
12:32PM EDT


 

Airport Tracker/Info


-or-


 

Live Flight TrackerFlight Track Log ✈ SKW4557 ✈ 10-May-2013 ✈ KSLC - KSTL

Flight Track Log - Related Links

Times and Time Zones

All times are in EDT time to prevent confusion due to time zone crossing. See the SKW4557 flight status page for this flight to view local times or setup timezone preferences in your user account.

Time Position Orientation Groundspeed Altitude Reporting Facility
EDT Latitude Longitude Course Direction KTS MPH feet Rate Location/Type
12:00PM 40.7653 -111.9992 103° East 189 217 5,200  Level Salt Lake Center
12:01PM 40.7439 -112.0431 237° Southwest 217 250 6,800 1,680 Climbing Salt Lake Center
12:02PM 40.7528 -112.0633 300° West 222 255 7,300 1,920 Climbing Salt Lake Center
12:02PM 40.7897 -112.1125 315° West 257 296 8,800 1,980 Climbing Salt Lake Center
12:03PM 40.9762 -112.2333 North  Level FlightAware Approximate
12:03PM 40.8042 -112.1294 318° Northwest 257 296 9,400  Level Salt Lake Center
12:04PM 41.0164 -112.1019 81° East  Level FlightAware Approximate
12:04PM 40.8586 -112.1983 316° Northwest 267 307 11,900  Level Salt Lake Center
12:05PM 40.9796 -111.9460 103° East  Level FlightAware Approximate
12:05PM 40.9367 -112.2058 356° North 269 310 14,500  Level Salt Lake Center
12:06PM 40.9506 -111.7859 103° East  Level FlightAware Approximate
12:06PM 40.9456 -112.1039 83° East 292 336 16,100  Level Salt Lake Center
12:07PM 40.9411 -111.9858 93° East 328 377 17,400 1,320 Climbing Salt Lake Center
12:08PM 40.9325 -111.8628 95° East 344 396 18,900 1,620 Climbing Salt Lake Center
12:09PM 40.9225 -111.7103 95° East 358 412 20,800 1,680 Climbing Salt Lake Center
12:10PM 40.9128 -111.5769 95° East 368 423 22,400 1,440 Climbing Salt Lake Center
12:11PM 40.9025 -111.4417 96° East 374 430 23,800 1,260 Climbing Salt Lake Center
12:12PM 40.8925 -111.3025 95° East 381 438 25,100 1,200 Climbing Salt Lake Center
12:13PM 40.8808 -111.1614 96° East 386 444 26,300 1,200 Climbing Salt Lake Center
12:14PM 40.8694 -111.0172 96° East 394 453 27,600 1,200 Climbing Salt Lake Center
12:15PM 40.8556 -110.8428 96° East 399 459 28,800 960 Climbing Salt Lake Center
12:16PM 40.8439 -110.6950 96° East 404 465 29,700 840 Climbing Salt Lake Center
12:17PM 40.8311 -110.5353 96° East 411 473 30,600 780 Climbing Salt Lake Center
12:18PM 40.8192 -110.3906 96° East 416 479 31,400 840 Climbing Salt Lake Center
12:19PM 40.8061 -110.2308 96° East 417 480 32,400 900 Climbing Salt Lake Center
12:20PM 40.7931 -110.0856 97° East 417 480 33,300 960 Climbing Salt Lake Center
12:21PM 40.7786 -109.9175 96° East 413 475 34,400 960 Climbing Salt Lake Center
12:22PM 40.7667 -109.7769 96° East 407 468 35,400 780 Climbing Salt Lake Center
12:23PM 40.7514 -109.6167 97° East 397 457 36,100 540 Climbing Salt Lake Center
12:24PM 40.7392 -109.4767 97° East 399 459 36,600 420 Climbing Salt Lake Center
12:25PM 40.7250 -109.3139 96° East 400 460 37,000 180 Climbing Salt Lake Center
12:26PM 40.7108 -109.1692 97° East 405 466 37,000  Level Salt Lake Center
12:27PM 40.6944 -109.0028 97° East 411 473 37,000  Level Salt Lake Center
12:29PM 40.6808 -108.8583 97° East 415 478 37,000  Level Salt Lake Center
12:29PM 40.6747 -108.7833 96° East 419 482 37,000  Level Denver Center
12:30PM 40.6603 -108.6350 97° East 423 487 37,000  Level Denver Center
12:31PM 40.6492 -108.5425 99° East 422 486 37,000  Level Salt Lake Center
12:32PM 40.6356 -108.3942 97° East 425 489 37,000  Level Salt Lake Center
12:32PM 40.6275 -108.3167 98° East 423 487 37,000  Level Denver Center
12:33PM 40.6181 -108.2228 98° East 426 490 37,000  Level Salt Lake Center
12:34PM 40.6036 -108.0753 97° East 426 490 37,000  Level Salt Lake Center
12:34PM 40.5947 -107.9967 98° East 423 487 37,000  Level Denver Center
12:35PM 40.5769 -107.8264 98° East 420 483 37,000  Level Denver Center
12:36PM 40.5614 -107.6819 98° East 418 481 37,000  Level Denver Center
12:37PM 40.5428 -107.5131 98° East 417 480 37,000  Level Denver Center
12:38PM 40.5272 -107.3694 98° East 414 476 37,000  Level Denver Center
12:39PM 40.5136 -107.2058 96° East 419 482 37,000  Level Denver Center
12:40PM 40.5039 -107.0675 95° East 419 482 37,000  Level Denver Center
12:41PM 40.4931 -106.9144 95° East 419 482 37,000  Level Denver Center
12:42PM 40.4800 -106.7328 95° East 416 479 37,000  Level Denver Center
12:43PM 40.4694 -106.5811 95° East 416 479 37,000  Level Denver Center
12:44PM 40.4575 -106.4236 96° East 419 482 37,000  Level Denver Center
12:46PM 40.4453 -106.2783 96° East 418 481 37,000  Level Denver Center
12:47PM 40.4331 -106.1217 96° East 420 483 37,000  Level Denver Center
12:48PM 40.4208 -105.9650 96° East 429 494 37,000  Level Denver Center
12:49PM 40.4081 -105.8094 96° East 428 493 37,000  Level Denver Center
12:50PM 40.3956 -105.6547 96° East 428 493 37,000  Level Denver Center
12:51PM 40.3803 -105.4675 96° East 429 494 37,000  Level Denver Center
12:52PM 40.3661 -105.3117 97° East 435 501 37,000  Level Denver Center
12:53PM 40.3511 -105.1444 97° East 430 495 37,000  Level Denver Center
12:54PM 40.3386 -104.9883 96° East 432 497 37,000  Level Denver Center
12:55PM 40.3236 -104.8197 97° East 433 498 37,000  Level Denver Center
12:56PM 40.3092 -104.6611 97° East 437 503 37,000  Level Denver Center
12:57PM 40.2942 -104.5033 97° East 436 502 37,000  Level Denver Center
12:58PM 40.2778 -104.3328 97° East 439 505 37,000  Level Denver Center
12:59PM 40.2633 -104.1753 97° East 436 502 37,000  Level Denver Center
01:00PM 40.2467 -104.0047 97° East 438 504 37,000  Level Denver Center
01:01PM 40.2314 -103.8469 97° East 438 504 37,000  Level Denver Center
01:02PM 40.2144 -103.6783 97° East 433 498 37,000  Level Denver Center
01:03PM 40.1992 -103.5294 98° East 433 498 37,000  Level Denver Center
01:04PM 40.1831 -103.3722 98° East 443 510 37,000  Level Denver Center
01:05PM 40.1650 -103.1969 98° East 438 504 37,000  Level Denver Center
01:06PM 40.1489 -103.0464 98° East 438 504 37,000  Level Denver Center
01:07PM 40.1300 -102.8733 98° East 432 497 37,000  Level Denver Center
01:08PM 40.1139 -102.7228 98° East 436 502 37,000  Level Denver Center
01:09PM 40.0956 -102.5506 98° East 432 497 37,000  Level Denver Center
01:10PM 40.0792 -102.4003 98° East 436 502 37,000  Level Denver Center
01:11PM 40.0600 -102.2281 98° East 431 496 37,000  Level Denver Center
01:12PM 40.0422 -102.0783 99° East 435 501 37,000  Level Denver Center
01:13PM 40.0219 -101.9036 99° East 437 503 37,000  Level Denver Center
01:14PM 40.0053 -101.7536 98° East 437 503 37,000  Level Denver Center
01:16PM 39.9836 -101.5781 99° East 442 509 37,000  Level Denver Center
01:17PM 39.9656 -101.4269 99° East 442 509 37,000  Level Denver Center
01:18PM 39.9442 -101.2517 99° East 440 506 37,000  Level Denver Center
01:19PM 39.9264 -101.1014 99° East 440 506 37,000  Level Denver Center
01:20PM 39.9039 -100.9253 99° East 444 511 37,000  Level Denver Center
01:21PM 39.8853 -100.7728 99° East 446 513 37,000  Level Denver Center
01:22PM 39.8633 -100.5967 99° East 444 511 37,000  Level Denver Center
01:23PM 39.8431 -100.4456 100° East 445 512 37,000  Level Denver Center
01:24PM 39.8203 -100.2683 99° East 445 512 37,000  Level Denver Center
01:25PM 39.8003 -100.1192 100° East 450 518 37,000  Level Denver Center
01:26PM 39.7794 -99.9600 100° East 449 517 37,000  Level Denver Center
01:27PM 39.7578 -99.8000 100° East 450 518 37,000  Level Denver Center
01:28PM 39.7317 -99.6064 100° East 455 524 37,000  Level Denver Center
01:29PM 39.7097 -99.4475 100° East 451 519 37,000  Level Denver Center
01:30PM 39.6878 -99.2864 100° East 454 522 37,000  Level Denver Center
01:31PM 39.6647 -99.1278 101° East 451 519 37,000  Level Denver Center
01:32PM 39.6431 -98.9689 100° East 448 516 37,000  Level Denver Center
01:33PM 39.6194 -98.8100 101° East 449 517 37,000  Level Denver Center
01:34PM 39.5917 -98.6206 101° East 446 513 37,000  Level Denver Center
01:35PM 39.5697 -98.4636 100° East 443 510 37,000  Level Denver Center
01:36PM 39.5458 -98.3064 101° East 446 513 37,000  Level Denver Center
01:38PM 39.5086 -98.0553 101° East 445 512 37,000  Level Minneapolis Center
01:38PM 39.5044 -98.0189 98° East 445 512 37,000  Level Kansas City Center
01:39PM 39.4892 -97.8644 97° East 438 504 37,000  Level Kansas City Center
01:40PM 39.4722 -97.6728 96° East 445 512 37,000  Level Kansas City Center
01:41PM 39.4572 -97.5100 97° East 444 511 37,000  Level Kansas City Center
01:42PM 39.4431 -97.3583 97° East 443 510 37,000  Level Kansas City Center
01:43PM 39.4264 -97.1769 97° East 451 519 37,000  Level Kansas City Center
01:44PM 39.4119 -97.0219 97° East 454 522 37,000  Level Kansas City Center
01:45PM 39.3961 -96.8664 97° East 456 525 37,000  Level Kansas City Center
01:46PM 39.3794 -96.6833 97° East 459 528 37,000  Level Kansas City Center
01:47PM 39.3625 -96.5258 98° East 462 532 37,000  Level Kansas City Center
01:48PM 39.3453 -96.3356 97° East 464 534 37,000  Level Kansas City Center
01:49PM 39.3278 -96.1686 98° East 467 537 37,000  Level Kansas City Center
01:50PM 39.3067 -95.9961 99° East 468 539 37,000  Level Kansas City Center
01:52PM 39.2903 -95.8361 97° East 469 540 37,000  Level Kansas City Center
01:53PM 39.2711 -95.6492 97° East 472 543 37,000  Level Kansas City Center
01:54PM 39.2533 -95.4892 98° East 471 542 37,000  Level Kansas City Center
01:55PM 39.2317 -95.2944 98° East 473 544 37,000  Level Kansas City Center
01:56PM 39.2122 -95.1281 99° East 472 543 37,000  Level Kansas City Center
01:57PM 39.1950 -94.9703 98° East 468 539 37,000  Level Kansas City Center
01:58PM 39.1733 -94.7833 98° East 471 542 37,000  Level Kansas City Center
01:59PM 39.1556 -94.6253 98° East 465 535 37,000  Level Kansas City Center
02:00PM 39.1342 -94.4458 99° East 455 524 37,000  Level Kansas City Center
02:01PM 39.1156 -94.2933 99° East 452 520 37,000  Level Kansas City Center
02:02PM 39.0978 -94.1417 99° East 449 517 37,000  Level Kansas City Center
02:03PM 39.0706 -93.9653 101° East 448 516 37,000  Level Kansas City Center
02:04PM 39.0458 -93.8142 102° East 450 518 37,000 -540 Level Kansas City Center
02:05PM 39.0175 -93.6378 102° East 451 519 36,000 -1,020 Descending Kansas City Center
02:06PM 38.9939 -93.4822 101° East 448 516 35,000 -1,020 Descending Kansas City Center
02:07PM 38.9656 -93.3236 103° East 451 519 33,900 -1,200 Descending Kansas City Center
02:08PM 38.9367 -93.1572 103° East 465 535 32,500 -1,440 Descending Kansas City Center
02:09PM 38.9089 -92.9861 102° East 481 554 31,000 -1,620 Descending Kansas City Center
02:10PM 38.8769 -92.7944 102° East 474 545 29,200 -1,620 Descending Kansas City Center
02:11PM 38.8508 -92.6392 102° East 458 527 27,700 -1,500 Descending Kansas City Center
02:12PM 38.8231 -92.4850 103° East 446 513 26,100 -1,500 Descending Kansas City Center
02:13PM 38.7972 -92.3336 102° East 440 506 24,600 -1,380 Descending Kansas City Center
02:14PM 38.7717 -92.1853 102° East 433 498 23,300 -1,560 Descending Kansas City Center
02:15PM 38.7442 -92.0392 104° East 427 491 21,400 -1,800 Descending Kansas City Center
02:16PM 38.7189 -91.8994 103° East 414 476 19,700 -1,740 Descending Kansas City Center
02:17PM 38.6925 -91.7400 102° East 387 445 17,900 -1,620 Descending Kansas City Center
02:18PM 38.6922 -91.6033 90° East 386 444 16,400 -1,380 Descending Kansas City Center
02:19PM 38.6933 -91.4697 89° East 377 434 15,100 -1,140 Descending Kansas City Center
02:20PM 38.6939 -91.3472 90° East 370 426 14,100 -1,020 Descending Kansas City Center
02:21PM 38.6936 -91.2200 90° East 362 417 13,100 -900 Descending Kansas City Center
02:23PM 38.6964 -91.0942 88° East 358 412 12,300 -900 Descending Kansas City Center
02:24PM 38.7008 -90.9419 88° East 357 411 11,300 -900 Descending Kansas City Center
02:25PM 38.7044 -90.8175 88° East 352 405 10,500 -720 Descending Kansas City Center
02:26PM 38.7069 -90.7019 88° East 333 383 9,900 -780 Descending Kansas City Center
02:27PM 38.7114 -90.5931 87° East 312 359 8,900 -1,020 Descending Kansas City Center
02:29PM 38.6547 -90.4067 111° Southeast 258 297 6,900 -1,080 Descending Kansas City Center
02:30PM 38.6206 -90.3358 122° Southeast 246 283 5,600 -1,500 Descending Kansas City Center
02:31PM 38.6172 -90.2544 93° East 238 274 3,800 -1,500 Descending Kansas City Center
02:32PM 38.6425 -90.1942 62° Northeast 223 257 2,500 -720 Descending Kansas City Center
02:33PM 38.6903 -90.2394 324° Northwest 194 223 2,400 -480 Descending Kansas City Center
02:34PM 38.7117 -90.2858 301° West 169 194 1,600 -720 Descending Kansas City Center
02:35PM 38.7297 -90.3194 305° West 138 159 1,000 -540 Descending Kansas City Center
02:36PM 38.7500 -90.3628 301° West 131 151 600 -420 Descending Kansas City Center